sensor_id;sensor_type;location;lat;lon;timestamp;temperature;humidity
9033;DHT22;4551;53.164;8.210;2022-07-22T00:01:06;16.40;99.90
9033;DHT22;4551;53.164;8.210;2022-07-22T00:03:34;16.30;99.90
9033;DHT22;4551;53.164;8.210;2022-07-22T00:06:02;16.30;99.90
9033;DHT22;4551;53.164;8.210;2022-07-22T00:08:32;16.30;99.90
9033;DHT22;4551;53.164;8.210;2022-07-22T00:11:00;16.30;99.90
9033;DHT22;4551;53.164;8.210;2022-07-22T00:13:28;16.30;99.90
9033;DHT22;4551;53.164;8.210;2022-07-22T00:15:56;16.40;99.90
9033;DHT22;4551;53.164;8.210;2022-07-22T00:18:25;16.40;99.90
9033;DHT22;4551;53.164;8.210;2022-07-22T00:20:53;16.40;99.90
9033;DHT22;4551;53.164;8.210;2022-07-22T00:23:21;16.40;99.90
9033;DHT22;4551;53.164;8.210;2022-07-22T00:25:51;16.40;99.90
9033;DHT22;4551;53.164;8.210;2022-07-22T00:28:20;16.40;99.90
9033;DHT22;4551;53.164;8.210;2022-07-22T00:30:49;16.30;99.90
9033;DHT22;4551;53.164;8.210;2022-07-22T00:33:20;16.40;99.90
9033;DHT22;4551;53.164;8.210;2022-07-22T00:35:48;16.30;99.90
9033;DHT22;4551;53.164;8.210;2022-07-22T00:38:16;16.30;99.90
9033;DHT22;4551;53.164;8.210;2022-07-22T00:40:44;16.30;99.90
9033;DHT22;4551;53.164;8.210;2022-07-22T00:43:14;16.30;99.90
9033;DHT22;4551;53.164;8.210;2022-07-22T00:45:42;16.30;99.90
9033;DHT22;4551;53.164;8.210;2022-07-22T00:48:11;16.20;99.90
9033;DHT22;4551;53.164;8.210;2022-07-22T00:50:40;16.20;99.90
9033;DHT22;4551;53.164;8.210;2022-07-22T00:53:08;16.20;99.90
9033;DHT22;4551;53.164;8.210;2022-07-22T00:55:37;16.20;99.90
9033;DHT22;4551;53.164;8.210;2022-07-22T00:58:05;16.10;99.90
9033;DHT22;4551;53.164;8.210;2022-07-22T01:00:35;16.10;99.90
9033;DHT22;4551;53.164;8.210;2022-07-22T01:03:03;16.00;99.90
9033;DHT22;4551;53.164;8.210;2022-07-22T01:05:31;16.00;99.90
9033;DHT22;4551;53.164;8.210;2022-07-22T01:07:59;16.00;99.90
9033;DHT22;4551;53.164;8.210;2022-07-22T01:10:27;16.10;99.90
9033;DHT22;4551;53.164;8.210;2022-07-22T01:12:56;16.00;99.90
9033;DHT22;4551;53.164;8.210;2022-07-22T01:15:24;16.00;99.90
9033;DHT22;4551;53.164;8.210;2022-07-22T01:17:53;16.00;99.90
9033;DHT22;4551;53.164;8.210;2022-07-22T01:20:23;16.00;99.90
9033;DHT22;4551;53.164;8.210;2022-07-22T01:22:52;16.00;99.90
9033;DHT22;4551;53.164;8.210;2022-07-22T01:25:20;15.90;99.90
9033;DHT22;4551;53.164;8.210;2022-07-22T01:27:49;15.90;99.90
9033;DHT22;4551;53.164;8.210;2022-07-22T01:30:17;15.80;99.90
9033;DHT22;4551;53.164;8.210;2022-07-22T01:32:45;15.90;99.90
9033;DHT22;4551;53.164;8.210;2022-07-22T01:35:13;15.90;99.90
9033;DHT22;4551;53.164;8.210;2022-07-22T01:37:43;15.80;99.90
9033;DHT22;4551;53.164;8.210;2022-07-22T01:40:11;15.80;99.90
9033;DHT22;4551;53.164;8.210;2022-07-22T01:42:40;15.80;99.90
9033;DHT22;4551;53.164;8.210;2022-07-22T01:45:09;15.80;99.90
9033;DHT22;4551;53.164;8.210;2022-07-22T01:47:37;15.90;99.90
9033;DHT22;4551;53.164;8.210;2022-07-22T01:50:08;15.90;99.90
9033;DHT22;4551;53.164;8.210;2022-07-22T01:52:38;16.00;99.90
9033;DHT22;4551;53.164;8.210;2022-07-22T01:55:09;16.00;99.90
9033;DHT22;4551;53.164;8.210;2022-07-22T01:57:38;15.90;99.90
9033;DHT22;4551;53.164;8.210;2022-07-22T02:00:08;15.90;99.90
9033;DHT22;4551;53.164;8.210;2022-07-22T02:02:37;15.90;99.90
9033;DHT22;4551;53.164;8.210;2022-07-22T02:05:06;15.90;99.90
9033;DHT22;4551;53.164;8.210;2022-07-22T02:07:34;15.80;99.90
9033;DHT22;4551;53.164;8.210;2022-07-22T02:10:03;15.80;99.90
9033;DHT22;4551;53.164;8.210;2022-07-22T02:12:32;15.80;99.90
9033;DHT22;4551;53.164;8.210;2022-07-22T02:15:01;15.90;99.90
9033;DHT22;4551;53.164;8.210;2022-07-22T02:17:29;15.80;99.90
9033;DHT22;4551;53.164;8.210;2022-07-22T02:19:57;15.90;99.90
9033;DHT22;4551;53.164;8.210;2022-07-22T02:22:25;15.90;99.90
9033;DHT22;4551;53.164;8.210;2022-07-22T02:24:54;15.90;99.90
9033;DHT22;4551;53.164;8.210;2022-07-22T02:27:22;15.90;99.90
9033;DHT22;4551;53.164;8.210;2022-07-22T02:29:52;15.90;99.90
9033;DHT22;4551;53.164;8.210;2022-07-22T02:32:20;15.90;99.90
9033;DHT22;4551;53.164;8.210;2022-07-22T02:34:49;15.80;99.90
9033;DHT22;4551;53.164;8.210;2022-07-22T02:37:18;15.80;99.90
9033;DHT22;4551;53.164;8.210;2022-07-22T02:39:46;15.90;99.90
9033;DHT22;4551;53.164;8.210;2022-07-22T02:42:14;15.90;99.90
9033;DHT22;4551;53.164;8.210;2022-07-22T02:44:42;15.80;99.90
9033;DHT22;4551;53.164;8.210;2022-07-22T02:47:12;15.80;99.90
9033;DHT22;4551;53.164;8.210;2022-07-22T02:49:40;15.80;99.90
9033;DHT22;4551;53.164;8.210;2022-07-22T02:52:08;15.80;99.90
9033;DHT22;4551;53.164;8.210;2022-07-22T02:54:36;15.80;99.90
9033;DHT22;4551;53.164;8.210;2022-07-22T02:57:04;15.80;99.90
9033;DHT22;4551;53.164;8.210;2022-07-22T02:59:32;15.80;99.90
9033;DHT22;4551;53.164;8.210;2022-07-22T03:02:01;15.80;99.90
9033;DHT22;4551;53.164;8.210;2022-07-22T03:04:30;15.70;99.90
9033;DHT22;4551;53.164;8.210;2022-07-22T03:06:58;15.70;99.90
9033;DHT22;4551;53.164;8.210;2022-07-22T03:09:27;15.70;99.90
9033;DHT22;4551;53.164;8.210;2022-07-22T03:11:55;15.80;99.90
9033;DHT22;4551;53.164;8.210;2022-07-22T03:14:23;15.80;99.90
9033;DHT22;4551;53.164;8.210;2022-07-22T03:16:51;15.80;99.90
9033;DHT22;4551;53.164;8.210;2022-07-22T03:19:19;15.80;99.90
9033;DHT22;4551;53.164;8.210;2022-07-22T03:21:49;15.70;99.90
9033;DHT22;4551;53.164;8.210;2022-07-22T03:24:17;15.70;99.90
9033;DHT22;4551;53.164;8.210;2022-07-22T03:26:45;15.70;99.90
9033;DHT22;4551;53.164;8.210;2022-07-22T03:29:13;15.70;99.90
9033;DHT22;4551;53.164;8.210;2022-07-22T03:31:41;15.70;99.90
9033;DHT22;4551;53.164;8.210;2022-07-22T03:34:09;15.70;99.90
9033;DHT22;4551;53.164;8.210;2022-07-22T03:36:37;15.70;99.90
9033;DHT22;4551;53.164;8.210;2022-07-22T03:39:07;15.70;99.90
9033;DHT22;4551;53.164;8.210;2022-07-22T03:41:35;15.70;99.90
9033;DHT22;4551;53.164;8.210;2022-07-22T03:44:03;15.70;99.90
9033;DHT22;4551;53.164;8.210;2022-07-22T03:46:31;15.70;99.90
9033;DHT22;4551;53.164;8.210;2022-07-22T03:49:00;15.70;99.90
9033;DHT22;4551;53.164;8.210;2022-07-22T03:51:28;15.70;99.90
9033;DHT22;4551;53.164;8.210;2022-07-22T03:54:01;15.70;99.90
9033;DHT22;4551;53.164;8.210;2022-07-22T03:56:30;15.70;99.90
9033;DHT22;4551;53.164;8.210;2022-07-22T03:58:58;15.70;99.90
9033;DHT22;4551;53.164;8.210;2022-07-22T04:01:27;15.70;99.90
9033;DHT22;4551;53.164;8.210;2022-07-22T04:03:55;15.70;99.90
9033;DHT22;4551;53.164;8.210;2022-07-22T04:06:30;15.80;99.90
9033;DHT22;4551;53.164;8.210;2022-07-22T04:08:58;15.70;99.90
9033;DHT22;4551;53.164;8.210;2022-07-22T04:11:27;15.70;99.90
9033;DHT22;4551;53.164;8.210;2022-07-22T04:13:56;15.70;99.90
9033;DHT22;4551;53.164;8.210;2022-07-22T04:16:24;15.70;99.90
9033;DHT22;4551;53.164;8.210;2022-07-22T04:18:52;15.80;99.90
9033;DHT22;4551;53.164;8.210;2022-07-22T04:21:21;15.70;99.90
9033;DHT22;4551;53.164;8.210;2022-07-22T04:23:49;15.80;99.90
9033;DHT22;4551;53.164;8.210;2022-07-22T04:26:17;15.80;99.90
9033;DHT22;4551;53.164;8.210;2022-07-22T04:28:46;15.80;99.90
9033;DHT22;4551;53.164;8.210;2022-07-22T04:31:15;15.80;99.90
9033;DHT22;4551;53.164;8.210;2022-07-22T04:33:43;15.80;99.90
9033;DHT22;4551;53.164;8.210;2022-07-22T04:36:11;15.80;99.90
9033;DHT22;4551;53.164;8.210;2022-07-22T04:38:42;15.80;99.90
9033;DHT22;4551;53.164;8.210;2022-07-22T04:41:10;15.80;99.90
9033;DHT22;4551;53.164;8.210;2022-07-22T04:43:38;15.80;99.90
9033;DHT22;4551;53.164;8.210;2022-07-22T04:46:06;15.80;99.90
9033;DHT22;4551;53.164;8.210;2022-07-22T04:48:36;15.80;99.90
9033;DHT22;4551;53.164;8.210;2022-07-22T04:51:04;15.80;99.90
9033;DHT22;4551;53.164;8.210;2022-07-22T04:53:32;15.80;99.90
9033;DHT22;4551;53.164;8.210;2022-07-22T04:56:14;15.80;99.90
9033;DHT22;4551;53.164;8.210;2022-07-22T04:58:42;15.80;99.90
9033;DHT22;4551;53.164;8.210;2022-07-22T05:01:13;15.80;99.90
9033;DHT22;4551;53.164;8.210;2022-07-22T05:03:42;15.90;99.90
9033;DHT22;4551;53.164;8.210;2022-07-22T05:06:10;15.90;99.90
9033;DHT22;4551;53.164;8.210;2022-07-22T05:08:38;15.90;99.90
9033;DHT22;4551;53.164;8.210;2022-07-22T05:11:07;15.90;99.90
9033;DHT22;4551;53.164;8.210;2022-07-22T05:13:35;15.90;99.90
9033;DHT22;4551;53.164;8.210;2022-07-22T05:16:03;15.90;99.90
9033;DHT22;4551;53.164;8.210;2022-07-22T05:18:32;15.90;99.90
9033;DHT22;4551;53.164;8.210;2022-07-22T05:21:02;16.00;99.90
9033;DHT22;4551;53.164;8.210;2022-07-22T05:23:30;16.00;99.90
9033;DHT22;4551;53.164;8.210;2022-07-22T05:25:58;16.00;99.90
9033;DHT22;4551;53.164;8.210;2022-07-22T05:28:27;16.00;99.90
9033;DHT22;4551;53.164;8.210;2022-07-22T05:30:55;16.00;99.90
9033;DHT22;4551;53.164;8.210;2022-07-22T05:33:23;16.00;99.90
9033;DHT22;4551;53.164;8.210;2022-07-22T05:35:51;16.00;99.90
9033;DHT22;4551;53.164;8.210;2022-07-22T05:38:21;16.00;99.90
9033;DHT22;4551;53.164;8.210;2022-07-22T05:40:49;16.00;99.90
9033;DHT22;4551;53.164;8.210;2022-07-22T05:43:17;16.00;99.90
9033;DHT22;4551;53.164;8.210;2022-07-22T05:45:48;16.00;99.90
9033;DHT22;4551;53.164;8.210;2022-07-22T05:48:16;16.00;99.90
9033;DHT22;4551;53.164;8.210;2022-07-22T05:50:44;16.00;99.90
9033;DHT22;4551;53.164;8.210;2022-07-22T05:53:13;16.00;99.90
9033;DHT22;4551;53.164;8.210;2022-07-22T05:55:43;16.00;99.90
9033;DHT22;4551;53.164;8.210;2022-07-22T05:58:14;16.00;99.90
9033;DHT22;4551;53.164;8.210;2022-07-22T06:00:42;16.00;99.90
9033;DHT22;4551;53.164;8.210;2022-07-22T06:03:10;16.00;99.90
9033;DHT22;4551;53.164;8.210;2022-07-22T06:05:45;16.00;99.90
9033;DHT22;4551;53.164;8.210;2022-07-22T06:08:13;16.00;99.90
9033;DHT22;4551;53.164;8.210;2022-07-22T06:10:43;16.00;99.90
9033;DHT22;4551;53.164;8.210;2022-07-22T06:13:11;16.00;99.90
9033;DHT22;4551;53.164;8.210;2022-07-22T06:15:39;16.00;99.90
9033;DHT22;4551;53.164;8.210;2022-07-22T06:18:08;16.00;99.90
9033;DHT22;4551;53.164;8.210;2022-07-22T06:20:36;16.00;99.90
9033;DHT22;4551;53.164;8.210;2022-07-22T06:23:04;16.00;99.90
9033;DHT22;4551;53.164;8.210;2022-07-22T06:25:32;16.00;99.90
9033;DHT22;4551;53.164;8.210;2022-07-22T06:28:11;16.00;99.90
9033;DHT22;4551;53.164;8.210;2022-07-22T06:30:40;16.00;99.90
9033;DHT22;4551;53.164;8.210;2022-07-22T06:33:08;16.00;99.90
9033;DHT22;4551;53.164;8.210;2022-07-22T06:35:39;16.10;99.90
9033;DHT22;4551;53.164;8.210;2022-07-22T06:38:08;16.10;99.90
9033;DHT22;4551;53.164;8.210;2022-07-22T06:40:55;16.10;99.90
9033;DHT22;4551;53.164;8.210;2022-07-22T06:43:24;16.20;99.90
9033;DHT22;4551;53.164;8.210;2022-07-22T06:45:54;16.20;99.90
9033;DHT22;4551;53.164;8.210;2022-07-22T06:48:22;16.20;99.90
9033;DHT22;4551;53.164;8.210;2022-07-22T06:50:50;16.20;99.90
9033;DHT22;4551;53.164;8.210;2022-07-22T06:53:19;16.20;99.90
9033;DHT22;4551;53.164;8.210;2022-07-22T06:55:48;16.20;99.90
9033;DHT22;4551;53.164;8.210;2022-07-22T06:58:16;16.20;99.90
9033;DHT22;4551;53.164;8.210;2022-07-22T07:00:46;16.20;99.90
9033;DHT22;4551;53.164;8.210;2022-07-22T07:03:14;16.30;99.90
9033;DHT22;4551;53.164;8.210;2022-07-22T07:06:00;16.30;99.90
9033;DHT22;4551;53.164;8.210;2022-07-22T07:08:30;16.40;99.90
9033;DHT22;4551;53.164;8.210;2022-07-22T07:10:58;16.40;99.90
9033;DHT22;4551;53.164;8.210;2022-07-22T07:13:28;16.30;99.90
9033;DHT22;4551;53.164;8.210;2022-07-22T07:15:57;16.40;99.90
9033;DHT22;4551;53.164;8.210;2022-07-22T07:18:25;16.40;99.90
9033;DHT22;4551;53.164;8.210;2022-07-22T07:20:54;16.40;99.90
9033;DHT22;4551;53.164;8.210;2022-07-22T07:23:22;16.50;99.90
9033;DHT22;4551;53.164;8.210;2022-07-22T07:25:50;16.50;99.90
9033;DHT22;4551;53.164;8.210;2022-07-22T07:28:20;16.50;99.90
9033;DHT22;4551;53.164;8.210;2022-07-22T07:30:48;16.50;99.90
9033;DHT22;4551;53.164;8.210;2022-07-22T07:33:18;16.50;99.90
9033;DHT22;4551;53.164;8.210;2022-07-22T07:35:47;16.50;99.90
9033;DHT22;4551;53.164;8.210;2022-07-22T07:38:15;16.50;99.90
9033;DHT22;4551;53.164;8.210;2022-07-22T07:40:43;16.60;99.90
9033;DHT22;4551;53.164;8.210;2022-07-22T07:43:11;16.60;99.90
9033;DHT22;4551;53.164;8.210;2022-07-22T07:45:40;16.60;99.90
9033;DHT22;4551;53.164;8.210;2022-07-22T07:48:08;16.60;99.90
9033;DHT22;4551;53.164;8.210;2022-07-22T07:50:38;16.60;99.90
9033;DHT22;4551;53.164;8.210;2022-07-22T07:53:07;16.70;99.90
9033;DHT22;4551;53.164;8.210;2022-07-22T07:55:35;16.70;99.90
9033;DHT22;4551;53.164;8.210;2022-07-22T07:58:05;16.70;99.90
9033;DHT22;4551;53.164;8.210;2022-07-22T08:00:33;16.80;99.90
9033;DHT22;4551;53.164;8.210;2022-07-22T08:03:02;16.70;99.90
9033;DHT22;4551;53.164;8.210;2022-07-22T08:05:33;16.70;99.90
9033;DHT22;4551;53.164;8.210;2022-07-22T08:08:03;16.60;99.90
9033;DHT22;4551;53.164;8.210;2022-07-22T08:10:41;16.60;99.90
9033;DHT22;4551;53.164;8.210;2022-07-22T08:13:24;16.70;99.90
9033;DHT22;4551;53.164;8.210;2022-07-22T08:15:52;16.70;99.90
9033;DHT22;4551;53.164;8.210;2022-07-22T08:18:21;16.70;99.90
9033;DHT22;4551;53.164;8.210;2022-07-22T08:20:49;16.80;99.90
9033;DHT22;4551;53.164;8.210;2022-07-22T08:23:19;16.90;99.90
9033;DHT22;4551;53.164;8.210;2022-07-22T08:25:47;16.80;99.90
9033;DHT22;4551;53.164;8.210;2022-07-22T08:28:15;16.80;99.90
9033;DHT22;4551;53.164;8.210;2022-07-22T08:30:43;16.80;99.90
9033;DHT22;4551;53.164;8.210;2022-07-22T08:33:11;16.80;99.90
9033;DHT22;4551;53.164;8.210;2022-07-22T08:35:40;16.80;99.90
9033;DHT22;4551;53.164;8.210;2022-07-22T08:38:08;16.80;99.90
9033;DHT22;4551;53.164;8.210;2022-07-22T08:40:38;16.90;99.90
9033;DHT22;4551;53.164;8.210;2022-07-22T08:43:06;16.90;99.90
9033;DHT22;4551;53.164;8.210;2022-07-22T08:45:35;17.00;99.90
9033;DHT22;4551;53.164;8.210;2022-07-22T08:48:03;17.00;99.90
9033;DHT22;4551;53.164;8.210;2022-07-22T08:50:34;17.00;99.90
9033;DHT22;4551;53.164;8.210;2022-07-22T08:53:02;16.90;99.90
9033;DHT22;4551;53.164;8.210;2022-07-22T08:55:31;17.00;99.90
9033;DHT22;4551;53.164;8.210;2022-07-22T08:58:01;16.90;99.90
9033;DHT22;4551;53.164;8.210;2022-07-22T09:00:29;16.90;99.90
9033;DHT22;4551;53.164;8.210;2022-07-22T09:02:57;16.90;99.90
9033;DHT22;4551;53.164;8.210;2022-07-22T09:05:32;16.90;99.90
9033;DHT22;4551;53.164;8.210;2022-07-22T09:08:11;16.90;99.90
9033;DHT22;4551;53.164;8.210;2022-07-22T09:10:40;16.90;99.90
9033;DHT22;4551;53.164;8.210;2022-07-22T09:13:11;17.00;99.90
9033;DHT22;4551;53.164;8.210;2022-07-22T09:15:46;17.10;99.90
9033;DHT22;4551;53.164;8.210;2022-07-22T09:18:14;17.10;99.90
9033;DHT22;4551;53.164;8.210;2022-07-22T09:20:42;17.10;99.90
9033;DHT22;4551;53.164;8.210;2022-07-22T09:23:13;17.20;99.90
9033;DHT22;4551;53.164;8.210;2022-07-22T09:25:42;17.20;99.90
9033;DHT22;4551;53.164;8.210;2022-07-22T09:28:15;17.30;99.90
9033;DHT22;4551;53.164;8.210;2022-07-22T09:30:47;17.30;99.90
9033;DHT22;4551;53.164;8.210;2022-07-22T09:33:18;17.30;99.90
9033;DHT22;4551;53.164;8.210;2022-07-22T09:35:47;17.40;99.90
9033;DHT22;4551;53.164;8.210;2022-07-22T09:38:26;17.40;99.90
9033;DHT22;4551;53.164;8.210;2022-07-22T09:40:54;17.40;99.90
9033;DHT22;4551;53.164;8.210;2022-07-22T09:43:24;17.40;99.90
9033;DHT22;4551;53.164;8.210;2022-07-22T09:45:59;17.40;99.90
9033;DHT22;4551;53.164;8.210;2022-07-22T09:48:27;17.50;99.90
9033;DHT22;4551;53.164;8.210;2022-07-22T09:50:56;17.50;99.90
9033;DHT22;4551;53.164;8.210;2022-07-22T09:53:26;17.50;99.90
9033;DHT22;4551;53.164;8.210;2022-07-22T09:55:56;17.50;99.90
9033;DHT22;4551;53.164;8.210;2022-07-22T09:58:27;17.40;99.90
9033;DHT22;4551;53.164;8.210;2022-07-22T10:01:03;17.50;99.90
9033;DHT22;4551;53.164;8.210;2022-07-22T10:03:33;17.50;99.90
9033;DHT22;4551;53.164;8.210;2022-07-22T10:06:05;17.50;99.90
9033;DHT22;4551;53.164;8.210;2022-07-22T10:08:34;17.50;99.90
9033;DHT22;4551;53.164;8.210;2022-07-22T10:11:06;17.50;99.90
9033;DHT22;4551;53.164;8.210;2022-07-22T10:13:37;17.50;99.90
9033;DHT22;4551;53.164;8.210;2022-07-22T10:16:08;17.50;99.90
9033;DHT22;4551;53.164;8.210;2022-07-22T10:18:37;17.50;99.90
9033;DHT22;4551;53.164;8.210;2022-07-22T10:21:07;17.60;99.90
9033;DHT22;4551;53.164;8.210;2022-07-22T10:23:36;17.60;99.90
9033;DHT22;4551;53.164;8.210;2022-07-22T10:26:04;17.60;99.90
9033;DHT22;4551;53.164;8.210;2022-07-22T10:28:36;17.70;99.90
9033;DHT22;4551;53.164;8.210;2022-07-22T10:31:20;17.70;99.90
9033;DHT22;4551;53.164;8.210;2022-07-22T10:33:52;17.80;99.90
9033;DHT22;4551;53.164;8.210;2022-07-22T10:36:34;17.80;99.90
9033;DHT22;4551;53.164;8.210;2022-07-22T10:39:06;17.90;99.90
9033;DHT22;4551;53.164;8.210;2022-07-22T10:41:36;17.90;99.90
9033;DHT22;4551;53.164;8.210;2022-07-22T10:44:06;18.00;99.90
9033;DHT22;4551;53.164;8.210;2022-07-22T10:46:51;18.00;99.90
9033;DHT22;4551;53.164;8.210;2022-07-22T10:49:22;18.00;99.90
9033;DHT22;4551;53.164;8.210;2022-07-22T10:52:11;18.00;99.90
9033;DHT22;4551;53.164;8.210;2022-07-22T10:55:18;18.00;99.90
9033;DHT22;4551;53.164;8.210;2022-07-22T10:57:47;18.10;99.90
9033;DHT22;4551;53.164;8.210;2022-07-22T11:00:17;18.20;99.90
9033;DHT22;4551;53.164;8.210;2022-07-22T11:02:46;18.20;99.90
9033;DHT22;4551;53.164;8.210;2022-07-22T11:05:14;18.20;99.90
9033;DHT22;4551;53.164;8.210;2022-07-22T11:07:51;18.10;99.90
9033;DHT22;4551;53.164;8.210;2022-07-22T11:10:20;18.10;99.90
9033;DHT22;4551;53.164;8.210;2022-07-22T11:12:49;18.00;99.90
9033;DHT22;4551;53.164;8.210;2022-07-22T11:15:25;18.00;99.90
9033;DHT22;4551;53.164;8.210;2022-07-22T11:17:56;18.00;99.90
9033;DHT22;4551;53.164;8.210;2022-07-22T11:20:24;18.00;99.90
9033;DHT22;4551;53.164;8.210;2022-07-22T11:22:53;18.00;99.90
9033;DHT22;4551;53.164;8.210;2022-07-22T11:25:25;17.90;99.90
9033;DHT22;4551;53.164;8.210;2022-07-22T11:27:54;18.00;99.90
9033;DHT22;4551;53.164;8.210;2022-07-22T11:30:26;18.10;99.90
9033;DHT22;4551;53.164;8.210;2022-07-22T11:32:54;18.10;99.90
9033;DHT22;4551;53.164;8.210;2022-07-22T11:35:23;18.00;99.90
9033;DHT22;4551;53.164;8.210;2022-07-22T11:38:00;18.00;99.90
9033;DHT22;4551;53.164;8.210;2022-07-22T11:40:32;18.10;99.90
9033;DHT22;4551;53.164;8.210;2022-07-22T11:43:03;18.10;99.90
9033;DHT22;4551;53.164;8.210;2022-07-22T11:45:33;18.20;99.90
9033;DHT22;4551;53.164;8.210;2022-07-22T11:48:08;18.20;99.90
9033;DHT22;4551;53.164;8.210;2022-07-22T11:50:36;18.20;99.90
9033;DHT22;4551;53.164;8.210;2022-07-22T11:53:05;18.30;99.90
9033;DHT22;4551;53.164;8.210;2022-07-22T11:55:34;18.30;99.90
9033;DHT22;4551;53.164;8.210;2022-07-22T11:58:02;18.40;99.90
9033;DHT22;4551;53.164;8.210;2022-07-22T12:00:32;18.40;99.90
9033;DHT22;4551;53.164;8.210;2022-07-22T12:03:01;18.40;99.90
9033;DHT22;4551;53.164;8.210;2022-07-22T12:05:29;18.40;99.90
9033;DHT22;4551;53.164;8.210;2022-07-22T12:07:59;18.30;99.90
9033;DHT22;4551;53.164;8.210;2022-07-22T12:10:27;18.30;99.90
9033;DHT22;4551;53.164;8.210;2022-07-22T12:12:55;18.20;99.90
9033;DHT22;4551;53.164;8.210;2022-07-22T12:15:23;18.20;99.90
9033;DHT22;4551;53.164;8.210;2022-07-22T12:18:17;18.20;99.90
9033;DHT22;4551;53.164;8.210;2022-07-22T12:20:47;18.30;99.90
9033;DHT22;4551;53.164;8.210;2022-07-22T12:23:21;18.20;99.90
9033;DHT22;4551;53.164;8.210;2022-07-22T12:25:53;18.30;99.90
9033;DHT22;4551;53.164;8.210;2022-07-22T12:28:22;18.30;99.90
9033;DHT22;4551;53.164;8.210;2022-07-22T12:30:51;18.40;99.90
9033;DHT22;4551;53.164;8.210;2022-07-22T12:33:22;18.40;99.90
9033;DHT22;4551;53.164;8.210;2022-07-22T12:36:01;18.50;99.90
9033;DHT22;4551;53.164;8.210;2022-07-22T12:38:30;18.60;99.90
9033;DHT22;4551;53.164;8.210;2022-07-22T12:41:21;18.70;99.90
9033;DHT22;4551;53.164;8.210;2022-07-22T12:43:52;18.70;99.90
9033;DHT22;4551;53.164;8.210;2022-07-22T12:46:21;18.70;99.90
9033;DHT22;4551;53.164;8.210;2022-07-22T12:48:54;18.80;99.90
9033;DHT22;4551;53.164;8.210;2022-07-22T12:51:27;18.80;99.90
9033;DHT22;4551;53.164;8.210;2022-07-22T12:53:56;18.90;99.90
9033;DHT22;4551;53.164;8.210;2022-07-22T12:56:26;18.90;99.90
9033;DHT22;4551;53.164;8.210;2022-07-22T12:59:01;18.90;99.90
9033;DHT22;4551;53.164;8.210;2022-07-22T13:01:29;18.90;99.90
9033;DHT22;4551;53.164;8.210;2022-07-22T13:03:59;19.00;99.90
9033;DHT22;4551;53.164;8.210;2022-07-22T13:06:27;19.00;99.90
9033;DHT22;4551;53.164;8.210;2022-07-22T13:08:55;19.00;99.90
9033;DHT22;4551;53.164;8.210;2022-07-22T13:11:24;19.00;99.90
9033;DHT22;4551;53.164;8.210;2022-07-22T13:13:52;19.00;99.90
9033;DHT22;4551;53.164;8.210;2022-07-22T13:16:21;18.90;99.90
9033;DHT22;4551;53.164;8.210;2022-07-22T13:18:50;18.80;99.90
9033;DHT22;4551;53.164;8.210;2022-07-22T13:21:20;18.80;99.90
9033;DHT22;4551;53.164;8.210;2022-07-22T13:23:48;18.80;99.90
9033;DHT22;4551;53.164;8.210;2022-07-22T13:26:16;18.70;99.90
9033;DHT22;4551;53.164;8.210;2022-07-22T13:28:44;18.70;99.90
9033;DHT22;4551;53.164;8.210;2022-07-22T13:31:12;18.70;99.90
9033;DHT22;4551;53.164;8.210;2022-07-22T13:33:40;18.70;99.90
9033;DHT22;4551;53.164;8.210;2022-07-22T13:36:09;18.70;99.90
9033;DHT22;4551;53.164;8.210;2022-07-22T13:38:38;18.70;99.90
9033;DHT22;4551;53.164;8.210;2022-07-22T13:41:06;18.70;99.90
9033;DHT22;4551;53.164;8.210;2022-07-22T13:43:43;18.70;99.90
9033;DHT22;4551;53.164;8.210;2022-07-22T13:46:12;18.70;99.90
9033;DHT22;4551;53.164;8.210;2022-07-22T13:48:40;18.70;99.90
9033;DHT22;4551;53.164;8.210;2022-07-22T13:51:09;18.70;99.90
9033;DHT22;4551;53.164;8.210;2022-07-22T13:53:38;18.70;99.90
9033;DHT22;4551;53.164;8.210;2022-07-22T13:56:08;18.70;99.90
9033;DHT22;4551;53.164;8.210;2022-07-22T13:58:38;18.80;99.90
9033;DHT22;4551;53.164;8.210;2022-07-22T14:01:08;18.80;99.90
9033;DHT22;4551;53.164;8.210;2022-07-22T14:03:37;18.80;99.90
9033;DHT22;4551;53.164;8.210;2022-07-22T14:06:06;18.80;99.90
9033;DHT22;4551;53.164;8.210;2022-07-22T14:08:35;18.90;99.90
9033;DHT22;4551;53.164;8.210;2022-07-22T14:11:08;18.90;99.90
9033;DHT22;4551;53.164;8.210;2022-07-22T14:13:36;18.90;99.90
9033;DHT22;4551;53.164;8.210;2022-07-22T14:16:06;18.90;99.90
9033;DHT22;4551;53.164;8.210;2022-07-22T14:19:13;18.90;99.90
9033;DHT22;4551;53.164;8.210;2022-07-22T14:21:43;18.90;99.90
9033;DHT22;4551;53.164;8.210;2022-07-22T14:24:12;18.90;99.90
9033;DHT22;4551;53.164;8.210;2022-07-22T14:26:41;18.90;99.90
9033;DHT22;4551;53.164;8.210;2022-07-22T14:29:10;18.90;99.90
9033;DHT22;4551;53.164;8.210;2022-07-22T14:31:38;18.90;99.90
9033;DHT22;4551;53.164;8.210;2022-07-22T14:34:06;18.90;99.90
9033;DHT22;4551;53.164;8.210;2022-07-22T14:36:34;18.90;99.90
9033;DHT22;4551;53.164;8.210;2022-07-22T14:39:03;18.90;99.90
9033;DHT22;4551;53.164;8.210;2022-07-22T14:41:32;18.90;99.90
9033;DHT22;4551;53.164;8.210;2022-07-22T14:44:01;18.90;99.90
9033;DHT22;4551;53.164;8.210;2022-07-22T14:46:29;18.90;99.90
9033;DHT22;4551;53.164;8.210;2022-07-22T14:48:58;19.00;99.90
9033;DHT22;4551;53.164;8.210;2022-07-22T14:51:27;19.00;99.90
9033;DHT22;4551;53.164;8.210;2022-07-22T14:53:55;19.00;99.90
9033;DHT22;4551;53.164;8.210;2022-07-22T14:56:24;19.00;99.90
9033;DHT22;4551;53.164;8.210;2022-07-22T14:58:52;19.00;99.90
9033;DHT22;4551;53.164;8.210;2022-07-22T15:01:21;19.10;99.90
9033;DHT22;4551;53.164;8.210;2022-07-22T15:03:54;19.10;99.90
9033;DHT22;4551;53.164;8.210;2022-07-22T15:06:22;19.20;99.90
9033;DHT22;4551;53.164;8.210;2022-07-22T15:08:51;19.20;99.90
9033;DHT22;4551;53.164;8.210;2022-07-22T15:11:19;19.30;99.90
9033;DHT22;4551;53.164;8.210;2022-07-22T15:13:48;19.30;99.90
9033;DHT22;4551;53.164;8.210;2022-07-22T15:16:16;19.30;99.90
9033;DHT22;4551;53.164;8.210;2022-07-22T15:18:45;19.30;99.90
9033;DHT22;4551;53.164;8.210;2022-07-22T15:21:14;19.20;99.90
9033;DHT22;4551;53.164;8.210;2022-07-22T15:23:43;19.20;99.90
9033;DHT22;4551;53.164;8.210;2022-07-22T15:26:11;19.30;99.90
9033;DHT22;4551;53.164;8.210;2022-07-22T15:28:40;19.20;99.90
9033;DHT22;4551;53.164;8.210;2022-07-22T15:31:09;19.20;99.90
9033;DHT22;4551;53.164;8.210;2022-07-22T15:33:38;19.20;99.90
9033;DHT22;4551;53.164;8.210;2022-07-22T15:36:09;19.10;99.90
9033;DHT22;4551;53.164;8.210;2022-07-22T15:38:38;19.00;99.90
9033;DHT22;4551;53.164;8.210;2022-07-22T15:41:07;18.90;99.90
9033;DHT22;4551;53.164;8.210;2022-07-22T15:43:36;19.00;99.90
9033;DHT22;4551;53.164;8.210;2022-07-22T15:46:06;18.90;99.90
9033;DHT22;4551;53.164;8.210;2022-07-22T15:48:34;19.00;99.90
9033;DHT22;4551;53.164;8.210;2022-07-22T15:51:03;19.00;99.90
9033;DHT22;4551;53.164;8.210;2022-07-22T15:53:33;18.90;99.90
9033;DHT22;4551;53.164;8.210;2022-07-22T15:56:02;18.90;99.90
9033;DHT22;4551;53.164;8.210;2022-07-22T15:58:30;18.90;99.90
9033;DHT22;4551;53.164;8.210;2022-07-22T16:01:35;19.00;99.90
9033;DHT22;4551;53.164;8.210;2022-07-22T16:04:04;19.00;99.90
9033;DHT22;4551;53.164;8.210;2022-07-22T16:06:33;18.90;99.90
9033;DHT22;4551;53.164;8.210;2022-07-22T16:09:03;18.90;99.90
9033;DHT22;4551;53.164;8.210;2022-07-22T16:11:32;18.80;99.90
9033;DHT22;4551;53.164;8.210;2022-07-22T16:14:00;18.80;99.90
9033;DHT22;4551;53.164;8.210;2022-07-22T16:16:28;18.70;99.90
9033;DHT22;4551;53.164;8.210;2022-07-22T16:18:56;18.70;99.90